sensor_id;sensor_type;location;lat;lon;timestamp;pressure;altitude;pressure_sealevel;temperature;humidity
57562;BME280;43397;51.530;5.974;2022-07-01T00:02:25;101136.25;;;14.64;100.00
57562;BME280;43397;51.530;5.974;2022-07-01T00:04:51;101132.28;;;14.84;100.00
57562;BME280;43397;51.530;5.974;2022-07-01T00:07:17;101144.50;;;14.95;100.00
57562;BME280;43397;51.530;5.974;2022-07-01T00:09:42;101124.97;;;14.92;100.00
57562;BME280;43397;51.530;5.974;2022-07-01T00:12:09;101126.97;;;14.82;100.00
57562;BME280;43397;51.530;5.974;2022-07-01T00:14:34;101138.38;;;14.90;100.00
57562;BME280;43397;51.530;5.974;2022-07-01T00:17:00;101144.06;;;14.75;100.00
57562;BME280;43397;51.530;5.974;2022-07-01T00:19:28;101143.75;;;14.89;100.00
57562;BME280;43397;51.530;5.974;2022-07-01T00:21:54;101132.19;;;14.88;100.00
57562;BME280;43397;51.530;5.974;2022-07-01T00:24:19;101128.34;;;15.00;100.00
57562;BME280;43397;51.530;5.974;2022-07-01T00:26:45;101132.19;;;14.88;100.00
57562;BME280;43397;51.530;5.974;2022-07-01T00:29:11;101137.94;;;15.10;100.00
57562;BME280;43397;51.530;5.974;2022-07-01T00:31:37;101140.56;;;14.71;100.00
57562;BME280;43397;51.530;5.974;2022-07-01T00:34:04;101144.25;;;14.66;100.00
57562;BME280;43397;51.530;5.974;2022-07-01T00:36:31;101140.78;;;14.60;100.00
57562;BME280;43397;51.530;5.974;2022-07-01T00:38:57;101133.50;;;14.69;100.00
57562;BME280;43397;51.530;5.974;2022-07-01T00:41:23;101132.50;;;14.74;100.00
57562;BME280;43397;51.530;5.974;2022-07-01T00:43:49;101129.06;;;14.68;100.00
57562;BME280;43397;51.530;5.974;2022-07-01T00:46:15;101127.50;;;14.56;100.00
57562;BME280;43397;51.530;5.974;2022-07-01T00:48:42;101118.22;;;14.74;100.00
57562;BME280;43397;51.530;5.974;2022-07-01T00:51:07;101115.81;;;14.62;100.00
57562;BME280;43397;51.530;5.974;2022-07-01T00:53:35;101129.28;;;14.54;100.00
57562;BME280;43397;51.530;5.974;2022-07-01T00:56:01;101122.22;;;14.51;100.00
57562;BME280;43397;51.530;5.974;2022-07-01T00:58:27;101131.84;;;14.62;100.00
57562;BME280;43397;51.530;5.974;2022-07-01T01:00:53;101134.66;;;14.54;100.00
57562;BME280;43397;51.530;5.974;2022-07-01T01:03:19;101147.09;;;14.58;100.00
57562;BME280;43397;51.530;5.974;2022-07-01T01:05:45;101154.59;;;14.37;100.00
57562;BME280;43397;51.530;5.974;2022-07-01T01:08:11;101162.31;;;14.53;100.00
57562;BME280;43397;51.530;5.974;2022-07-01T01:10:39;101168.72;;;14.44;100.00
57562;BME280;43397;51.530;5.974;2022-07-01T01:13:05;101173.13;;;14.48;100.00
57562;BME280;43397;51.530;5.974;2022-07-01T01:15:31;101176.56;;;14.55;100.00
57562;BME280;43397;51.530;5.974;2022-07-01T01:17:57;101186.38;;;14.53;100.00
57562;BME280;43397;51.530;5.974;2022-07-01T01:20:24;101189.56;;;14.25;100.00
57562;BME280;43397;51.530;5.974;2022-07-01T01:22:52;101194.94;;;14.24;100.00
57562;BME280;43397;51.530;5.974;2022-07-01T01:25:18;101182.69;;;14.10;100.00
57562;BME280;43397;51.530;5.974;2022-07-01T01:27:45;101179.06;;;14.16;100.00
57562;BME280;43397;51.530;5.974;2022-07-01T01:30:12;101184.56;;;14.07;100.00
57562;BME280;43397;51.530;5.974;2022-07-01T01:32:40;101185.16;;;14.24;100.00
57562;BME280;43397;51.530;5.974;2022-07-01T01:35:07;101190.88;;;14.03;100.00
57562;BME280;43397;51.530;5.974;2022-07-01T01:37:34;101186.81;;;14.30;100.00
57562;BME280;43397;51.530;5.974;2022-07-01T01:40:01;101184.22;;;14.27;100.00
57562;BME280;43397;51.530;5.974;2022-07-01T01:42:27;101178.81;;;14.28;100.00
57562;BME280;43397;51.530;5.974;2022-07-01T01:44:53;101178.75;;;14.33;100.00
57562;BME280;43397;51.530;5.974;2022-07-01T01:47:19;101187.66;;;14.33;100.00
57562;BME280;43397;51.530;5.974;2022-07-01T01:49:45;101197.28;;;14.42;100.00
57562;BME280;43397;51.530;5.974;2022-07-01T01:52:10;101193.78;;;14.37;100.00
57562;BME280;43397;51.530;5.974;2022-07-01T01:54:36;101195.66;;;14.33;100.00
57562;BME280;43397;51.530;5.974;2022-07-01T01:57:05;101178.41;;;14.50;100.00
57562;BME280;43397;51.530;5.974;2022-07-01T01:59:31;101185.53;;;14.51;100.00
57562;BME280;43397;51.530;5.974;2022-07-01T02:01:57;101175.84;;;14.44;100.00
57562;BME280;43397;51.530;5.974;2022-07-01T02:04:23;101178.47;;;14.47;100.00
57562;BME280;43397;51.530;5.974;2022-07-01T02:06:49;101177.47;;;14.52;100.00
57562;BME280;43397;51.530;5.974;2022-07-01T02:09:14;101181.91;;;14.53;100.00
57562;BME280;43397;51.530;5.974;2022-07-01T02:11:40;101183.16;;;14.35;100.00
57562;BME280;43397;51.530;5.974;2022-07-01T02:14:07;101198.16;;;14.44;100.00
57562;BME280;43397;51.530;5.974;2022-07-01T02:16:33;101210.66;;;14.42;100.00
57562;BME280;43397;51.530;5.974;2022-07-01T02:18:59;101211.56;;;14.41;100.00
57562;BME280;43397;51.530;5.974;2022-07-01T02:21:25;101217.84;;;14.38;100.00
57562;BME280;43397;51.530;5.974;2022-07-01T02:23:51;101229.41;;;14.39;100.00
57562;BME280;43397;51.530;5.974;2022-07-01T02:26:16;101218.88;;;14.31;100.00
57562;BME280;43397;51.530;5.974;2022-07-01T02:28:42;101198.28;;;14.36;100.00
57562;BME280;43397;51.530;5.974;2022-07-01T02:31:09;101208.00;;;14.40;100.00
57562;BME280;43397;51.530;5.974;2022-07-01T02:33:35;101207.13;;;14.40;100.00
57562;BME280;43397;51.530;5.974;2022-07-01T02:36:01;101201.53;;;14.52;100.00
57562;BME280;43397;51.530;5.974;2022-07-01T02:38:27;101195.66;;;14.33;100.00
57562;BME280;43397;51.530;5.974;2022-07-01T02:40:53;101191.09;;;14.40;100.00
57562;BME280;43397;51.530;5.974;2022-07-01T02:43:19;101182.41;;;14.27;100.00
57562;BME280;43397;51.530;5.974;2022-07-01T02:45:45;101189.56;;;14.25;100.00
57562;BME280;43397;51.530;5.974;2022-07-01T02:48:12;101198.94;;;14.49;100.00
57562;BME280;43397;51.530;5.974;2022-07-01T02:50:38;101211.91;;;14.23;100.00
57562;BME280;43397;51.530;5.974;2022-07-01T02:53:04;101223.19;;;14.38;100.00
57562;BME280;43397;51.530;5.974;2022-07-01T02:55:30;101229.66;;;14.27;100.00
57562;BME280;43397;51.530;5.974;2022-07-01T02:57:56;101228.72;;;14.28;100.00
57562;BME280;43397;51.530;5.974;2022-07-01T03:00:22;101233.03;;;14.36;100.00
57562;BME280;43397;51.530;5.974;2022-07-01T03:02:48;101244.00;;;14.19;100.00
57562;BME280;43397;51.530;5.974;2022-07-01T03:05:15;101263.22;;;14.45;100.00
57562;BME280;43397;51.530;5.974;2022-07-01T03:07:42;101265.28;;;14.29;100.00
57562;BME280;43397;51.530;5.974;2022-07-01T03:10:09;101257.19;;;14.30;100.00
57562;BME280;43397;51.530;5.974;2022-07-01T03:12:35;101255.69;;;14.15;100.00
57562;BME280;43397;51.530;5.974;2022-07-01T03:15:04;101266.22;;;14.25;100.00
57562;BME280;43397;51.530;5.974;2022-07-01T03:17:31;101265.09;;;14.38;100.00
57562;BME280;43397;51.530;5.974;2022-07-01T03:19:57;101271.50;;;14.29;100.00
57562;BME280;43397;51.530;5.974;2022-07-01T03:22:26;101255.63;;;14.18;100.00
57562;BME280;43397;51.530;5.974;2022-07-01T03:24:52;101248.66;;;14.10;100.00
57562;BME280;43397;51.530;5.974;2022-07-01T03:27:19;101252.78;;;14.29;100.00
57562;BME280;43397;51.530;5.974;2022-07-01T03:29:45;101251.72;;;14.39;100.00
57562;BME280;43397;51.530;5.974;2022-07-01T03:32:11;101254.00;;;14.08;100.00
57562;BME280;43397;51.530;5.974;2022-07-01T03:34:38;101247.78;;;14.09;100.00
57562;BME280;43397;51.530;5.974;2022-07-01T03:37:05;101256.50;;;14.20;100.00
57562;BME280;43397;51.530;5.974;2022-07-01T03:39:33;101254.78;;;14.16;100.00
57562;BME280;43397;51.530;5.974;2022-07-01T03:41:59;101253.28;;;13.98;100.00
57562;BME280;43397;51.530;5.974;2022-07-01T03:44:25;101262.06;;;14.07;100.00
57562;BME280;43397;51.530;5.974;2022-07-01T03:46:51;101249.53;;;14.10;100.00
57562;BME280;43397;51.530;5.974;2022-07-01T03:49:17;101258.28;;;14.20;100.00
57562;BME280;43397;51.530;5.974;2022-07-01T03:51:42;101268.94;;;14.22;100.00
57562;BME280;43397;51.530;5.974;2022-07-01T03:54:08;101274.19;;;14.26;100.00
57562;BME280;43397;51.530;5.974;2022-07-01T03:56:36;101275.22;;;14.20;100.00
57562;BME280;43397;51.530;5.974;2022-07-01T03:59:01;101274.59;;;14.03;100.00
57562;BME280;43397;51.530;5.974;2022-07-01T04:01:27;101277.44;;;13.91;100.00
57562;BME280;43397;51.530;5.974;2022-07-01T04:03:53;101296.69;;;14.14;100.00
57562;BME280;43397;51.530;5.974;2022-07-01T04:06:19;101292.38;;;14.04;100.00
57562;BME280;43397;51.530;5.974;2022-07-01T04:08:46;101291.25;;;14.20;100.00
57562;BME280;43397;51.530;5.974;2022-07-01T04:11:13;101278.06;;;14.10;100.00
57562;BME280;43397;51.530;5.974;2022-07-01T04:13:40;101288.59;;;14.19;100.00
57562;BME280;43397;51.530;5.974;2022-07-01T04:16:06;101285.19;;;14.09;100.00
57562;BME280;43397;51.530;5.974;2022-07-01T04:18:33;101287.72;;;14.18;100.00
57562;BME280;43397;51.530;5.974;2022-07-01T04:20:59;101282.47;;;14.11;100.00
57562;BME280;43397;51.530;5.974;2022-07-01T04:23:24;101275.47;;;14.04;100.00
57562;BME280;43397;51.530;5.974;2022-07-01T04:25:50;101278.13;;;14.07;100.00
57562;BME280;43397;51.530;5.974;2022-07-01T04:28:16;101270.88;;;14.13;100.00
57562;BME280;43397;51.530;5.974;2022-07-01T04:30:43;101273.03;;;13.90;100.00
57562;BME280;43397;51.530;5.974;2022-07-01T04:33:09;101294.66;;;13.71;100.00
57562;BME280;43397;51.530;5.974;2022-07-01T04:35:34;101296.34;;;13.78;100.00
57562;BME280;43397;51.530;5.974;2022-07-01T04:38:00;101296.31;;;13.80;100.00
57562;BME280;43397;51.530;5.974;2022-07-01T04:40:26;101295.44;;;13.79;100.00
57562;BME280;43397;51.530;5.974;2022-07-01T04:42:52;101305.25;;;13.76;100.00
57562;BME280;43397;51.530;5.974;2022-07-01T04:45:17;101298.03;;;13.84;100.00
57562;BME280;43397;51.530;5.974;2022-07-01T04:47:44;101299.88;;;13.81;100.00
57562;BME280;43397;51.530;5.974;2022-07-01T04:50:10;101293.63;;;13.82;100.00
57562;BME280;43397;51.530;5.974;2022-07-01T04:52:37;101285.59;;;13.83;100.00
57562;BME280;43397;51.530;5.974;2022-07-01T04:55:03;101293.56;;;13.85;100.00
57562;BME280;43397;51.530;5.974;2022-07-01T04:57:29;101298.09;;;13.81;100.00
57562;BME280;43397;51.530;5.974;2022-07-01T04:59:55;101296.06;;;13.95;100.00
57562;BME280;43397;51.530;5.974;2022-07-01T05:02:20;101296.81;;;14.07;100.00
57562;BME280;43397;51.530;5.974;2022-07-01T05:04:48;101296.06;;;13.97;100.00
57562;BME280;43397;51.530;5.974;2022-07-01T05:07:13;101301.06;;;14.18;100.00
57562;BME280;43397;51.530;5.974;2022-07-01T05:09:39;101300.13;;;14.23;100.00
57562;BME280;43397;51.530;5.974;2022-07-01T05:12:05;101298.38;;;14.20;100.00
57562;BME280;43397;51.530;5.974;2022-07-01T05:14:31;101293.00;;;14.22;100.00
57562;BME280;43397;51.530;5.974;2022-07-01T05:16:57;101295.91;;;14.06;100.00
57562;BME280;43397;51.530;5.974;2022-07-01T05:19:23;101299.34;;;14.16;100.00
57562;BME280;43397;51.530;5.974;2022-07-01T05:21:50;101300.53;;;13.98;100.00
57562;BME280;43397;51.530;5.974;2022-07-01T05:24:16;101299.53;;;14.04;100.00
57562;BME280;43397;51.530;5.974;2022-07-01T05:26:42;101295.09;;;14.03;100.00
57562;BME280;43397;51.530;5.974;2022-07-01T05:29:08;101296.84;;;14.04;100.00
57562;BME280;43397;51.530;5.974;2022-07-01T05:31:33;101296.59;;;14.19;100.00
57562;BME280;43397;51.530;5.974;2022-07-01T05:33:59;101289.50;;;14.18;100.00
57562;BME280;43397;51.530;5.974;2022-07-01T05:36:25;101294.81;;;14.19;100.00
57562;BME280;43397;51.530;5.974;2022-07-01T05:38:52;101294.63;;;14.32;100.00
57562;BME280;43397;51.530;5.974;2022-07-01T05:41:18;101296.59;;;14.19;100.00
57562;BME280;43397;51.530;5.974;2022-07-01T05:43:44;101300.13;;;14.24;100.00
57562;BME280;43397;51.530;5.974;2022-07-01T05:46:10;101302.75;;;14.26;100.00
57562;BME280;43397;51.530;5.974;2022-07-01T05:48:36;101313.41;;;14.27;100.00
57562;BME280;43397;51.530;5.974;2022-07-01T05:51:02;101311.69;;;14.23;100.00
57562;BME280;43397;51.530;5.974;2022-07-01T05:53:28;101314.03;;;14.43;100.00
57562;BME280;43397;51.530;5.974;2022-07-01T05:55:55;101306.78;;;14.51;100.00
57562;BME280;43397;51.530;5.974;2022-07-01T05:58:21;101300.56;;;14.49;100.00
57562;BME280;43397;51.530;5.974;2022-07-01T06:00:47;101296.59;;;14.20;100.00
57562;BME280;43397;51.530;5.974;2022-07-01T06:03:14;101302.75;;;14.26;100.00
57562;BME280;43397;51.530;5.974;2022-07-01T06:05:40;101308.09;;;14.26;100.00
57562;BME280;43397;51.530;5.974;2022-07-01T06:08:06;101305.16;;;14.41;100.00
57562;BME280;43397;51.530;5.974;2022-07-01T06:10:32;101308.50;;;14.54;100.00
57562;BME280;43397;51.530;5.974;2022-07-01T06:12:59;101312.63;;;14.75;100.00
57562;BME280;43397;51.530;5.974;2022-07-01T06:15:26;101317.91;;;14.78;100.00
57562;BME280;43397;51.530;5.974;2022-07-01T06:17:52;101317.03;;;14.77;100.00
57562;BME280;43397;51.530;5.974;2022-07-01T06:20:18;101316.06;;;14.83;100.00
57562;BME280;43397;51.530;5.974;2022-07-01T06:22:44;101323.84;;;14.44;100.00
57562;BME280;43397;51.530;5.974;2022-07-01T06:25:10;101321.09;;;14.47;100.00
57562;BME280;43397;51.530;5.974;2022-07-01T06:27:38;101315.13;;;14.31;100.00
57562;BME280;43397;51.530;5.974;2022-07-01T06:30:06;101317.03;;;14.25;100.00
57562;BME280;43397;51.530;5.974;2022-07-01T06:32:33;101307.44;;;14.10;100.00
57562;BME280;43397;51.530;5.974;2022-07-01T06:34:58;101314.44;;;14.18;100.00
57562;BME280;43397;51.530;5.974;2022-07-01T06:37:24;101316.78;;;14.38;100.00
57562;BME280;43397;51.530;5.974;2022-07-01T06:39:50;101314.91;;;14.44;100.00
57562;BME280;43397;51.530;5.974;2022-07-01T06:42:16;101320.09;;;14.56;100.00
57562;BME280;43397;51.530;5.974;2022-07-01T06:44:42;101326.53;;;14.43;100.00
57562;BME280;43397;51.530;5.974;2022-07-01T06:47:09;101329.09;;;14.50;100.00
57562;BME280;43397;51.530;5.974;2022-07-01T06:49:35;101329.78;;;14.63;100.00
57562;BME280;43397;51.530;5.974;2022-07-01T06:52:01;101331.56;;;14.63;100.00
57562;BME280;43397;51.530;5.974;2022-07-01T06:54:27;101330.63;;;14.67;100.00
57562;BME280;43397;51.530;5.974;2022-07-01T06:56:52;101334.81;;;14.81;100.00
57562;BME280;43397;51.530;5.974;2022-07-01T06:59:18;101329.47;;;14.81;100.00
57562;BME280;43397;51.530;5.974;2022-07-01T07:01:44;101330.03;;;14.99;100.00
57562;BME280;43397;51.530;5.974;2022-07-01T07:04:11;101328.03;;;15.10;100.00
57562;BME280;43397;51.530;5.974;2022-07-01T07:06:37;101330.78;;;15.07;100.00
57562;BME280;43397;51.530;5.974;2022-07-01T07:09:03;101329.84;;;15.08;100.00
57562;BME280;43397;51.530;5.974;2022-07-01T07:11:29;101334.13;;;15.17;100.00
57562;BME280;43397;51.530;5.974;2022-07-01T07:13:54;101329.66;;;15.17;100.00
57562;BME280;43397;51.530;5.974;2022-07-01T07:16:20;101340.91;;;15.36;99.81
57562;BME280;43397;51.530;5.974;2022-07-01T07:18:46;101350.75;;;15.34;100.00
57562;BME280;43397;51.530;5.974;2022-07-01T07:21:13;101353.22;;;15.45;100.00
57562;BME280;43397;51.530;5.974;2022-07-01T07:23:39;101347.09;;;15.40;99.50
57562;BME280;43397;51.530;5.974;2022-07-01T07:26:05;101343.22;;;15.55;100.00
57562;BME280;43397;51.530;5.974;2022-07-01T07:28:31;101350.22;;;15.60;96.60
57562;BME280;43397;51.530;5.974;2022-07-01T07:30:56;101352.50;;;15.80;98.57
57562;BME280;43397;51.530;5.974;2022-07-01T07:33:22;101348.97;;;15.78;95.24
57562;BME280;43397;51.530;5.974;2022-07-01T07:35:48;101347.88;;;15.89;93.64
57562;BME280;43397;51.530;5.974;2022-07-01T07:38:15;101350.53;;;15.89;94.09
57562;BME280;43397;51.530;5.974;2022-07-01T07:40:41;101357.34;;;16.05;94.81
57562;BME280;43397;51.530;5.974;2022-07-01T07:43:07;101355.56;;;16.02;96.33
57562;BME280;43397;51.530;5.974;2022-07-01T07:45:32;101360.31;;;15.91;98.46
57562;BME280;43397;51.530;5.974;2022-07-01T07:47:58;101357.50;;;15.97;92.15
57562;BME280;43397;51.530;5.974;2022-07-01T07:50:24;101366.25;;;16.06;92.87
57562;BME280;43397;51.530;5.974;2022-07-01T07:52:50;101364.19;;;16.17;92.59
57562;BME280;43397;51.530;5.974;2022-07-01T07:55:17;101367.50;;;16.28;94.03
57562;BME280;43397;51.530;5.974;2022-07-01T07:57:43;101359.88;;;16.49;93.99
57562;BME280;43397;51.530;5.974;2022-07-01T08:00:11;101380.00;;;16.66;98.98
57562;BME280;43397;51.530;5.974;2022-07-01T08:02:37;101384.69;;;16.57;88.17
57562;BME280;43397;51.530;5.974;2022-07-01T08:05:04;101375.81;;;16.55;85.92
57562;BME280;43397;51.530;5.974;2022-07-01T08:07:30;101387.94;;;16.34;84.33
57562;BME280;43397;51.530;5.974;2022-07-01T08:09:59;101388.53;;;16.47;82.12
57562;BME280;43397;51.530;5.974;2022-07-01T08:12:26;101384.56;;;16.63;81.34
57562;BME280;43397;51.530;5.974;2022-07-01T08:14:52;101383.69;;;16.62;82.05
57562;BME280;43397;51.530;5.974;2022-07-01T08:17:18;101376.13;;;16.80;82.37
57562;BME280;43397;51.530;5.974;2022-07-01T08:19:44;101386.84;;;16.80;80.88
57562;BME280;43397;51.530;5.974;2022-07-01T08:22:09;101399.44;;;16.76;81.43
57562;BME280;43397;51.530;5.974;2022-07-01T08:24:35;101399.19;;;16.87;79.25
57562;BME280;43397;51.530;5.974;2022-07-01T08:27:01;101397.00;;;17.03;80.31
57562;BME280;43397;51.530;5.974;2022-07-01T08:29:28;101398.31;;;17.21;79.39
57562;BME280;43397;51.530;5.974;2022-07-01T08:31:54;101401.03;;;17.52;77.72
57562;BME280;43397;51.530;5.974;2022-07-01T08:34:20;101406.22;;;17.58;78.33
57562;BME280;43397;51.530;5.974;2022-07-01T08:36:46;101401.56;;;17.65;75.84
57562;BME280;43397;51.530;5.974;2022-07-01T08:39:12;101409.50;;;17.68;78.85
57562;BME280;43397;51.530;5.974;2022-07-01T08:41:39;101406.72;;;17.73;74.58
57562;BME280;43397;51.530;5.974;2022-07-01T08:44:05;101406.34;;;17.86;80.46
57562;BME280;43397;51.530;5.974;2022-07-01T08:46:33;101405.28;;;17.92;74.27
57562;BME280;43397;51.530;5.974;2022-07-01T08:48:59;101416.25;;;17.84;72.16
57562;BME280;43397;51.530;5.974;2022-07-01T08:51:25;101408.81;;;17.61;74.19
57562;BME280;43397;51.530;5.974;2022-07-01T08:53:51;101421.09;;;17.39;74.39
57562;BME280;43397;51.530;5.974;2022-07-01T08:56:17;101416.16;;;17.23;73.67
57562;BME280;43397;51.530;5.974;2022-07-01T08:58:42;101429.59;;;17.23;75.54
57562;BME280;43397;51.530;5.974;2022-07-01T09:01:13;101421.66;;;17.52;74.59
57562;BME280;43397;51.530;5.974;2022-07-01T09:03:41;101426.84;;;17.58;74.34
57562;BME280;43397;51.530;5.974;2022-07-01T09:06:12;101419.81;;;17.54;74.39
57562;BME280;43397;51.530;5.974;2022-07-01T09:08:38;101420.47;;;17.62;73.54
57562;BME280;43397;51.530;5.974;2022-07-01T09:11:11;101415.94;;;17.95;72.89
57562;BME280;43397;51.530;5.974;2022-07-01T09:13:37;101420.53;;;18.21;73.47
57562;BME280;43397;51.530;5.974;2022-07-01T09:16:10;101414.34;;;18.18;73.55
57562;BME280;43397;51.530;5.974;2022-07-01T09:18:36;101434.34;;;18.39;68.87
57562;BME280;43397;51.530;5.974;2022-07-01T09:21:07;101424.81;;;17.99;68.03
57562;BME280;43397;51.530;5.974;2022-07-01T09:23:33;101420.69;;;18.17;65.97
57562;BME280;43397;51.530;5.974;2022-07-01T09:25:59;101422.56;;;18.43;68.76
57562;BME280;43397;51.530;5.974;2022-07-01T09:28:26;101421.34;;;18.53;68.11
57562;BME280;43397;51.530;5.974;2022-07-01T09:30:54;101422.69;;;18.66;68.98
57562;BME280;43397;51.530;5.974;2022-07-01T09:33:21;101423.59;;;18.37;69.49
57562;BME280;43397;51.530;5.974;2022-07-01T09:35:49;101429.47;;;18.80;66.54
57562;BME280;43397;51.530;5.974;2022-07-01T09:38:17;101442.97;;;18.77;64.12
57562;BME280;43397;51.530;5.974;2022-07-01T09:40:48;101439.53;;;18.45;64.50
57562;BME280;43397;51.530;5.974;2022-07-01T09:43:15;101434.88;;;18.50;67.39
57562;BME280;43397;51.530;5.974;2022-07-01T09:45:49;101437.25;;;18.59;67.53
57562;BME280;43397;51.530;5.974;2022-07-01T09:48:14;101443.94;;;18.47;61.89
57562;BME280;43397;51.530;5.974;2022-07-01T09:50:40;101451.91;;;18.79;62.47
57562;BME280;43397;51.530;5.974;2022-07-01T09:53:06;101444.28;;;18.93;62.77
57562;BME280;43397;51.530;5.974;2022-07-01T09:55:34;101441.81;;;18.85;63.51
57562;BME280;43397;51.530;5.974;2022-07-01T09:58:00;101451.19;;;19.27;62.77
57562;BME280;43397;51.530;5.974;2022-07-01T10:00:27;101446.75;;;19.26;61.30
57562;BME280;43397;51.530;5.974;2022-07-01T10:02:54;101440.28;;;19.31;60.68
57562;BME280;43397;51.530;5.974;2022-07-01T10:05:22;101438.16;;;19.40;59.66
57562;BME280;43397;51.530;5.974;2022-07-01T10:07:55;101442.63;;;18.89;61.02
57562;BME280;43397;51.530;5.974;2022-07-01T10:10:37;101456.75;;;18.67;61.93
57562;BME280;43397;51.530;5.974;2022-07-01T10:13:07;101455.06;;;19.18;59.49
57562;BME280;43397;51.530;5.974;2022-07-01T10:15:35;101447.44;;;19.58;61.03
57562;BME280;43397;51.530;5.974;2022-07-01T10:18:02;101454.31;;;19.66;58.51
57562;BME280;43397;51.530;5.974;2022-07-01T10:20:29;101445.91;;;19.99;58.63
57562;BME280;43397;51.530;5.974;2022-07-01T10:23:03;101437.72;;;20.24;55.99
57562;BME280;43397;51.530;5.974;2022-07-01T10:25:41;101454.91;;;20.69;55.54
57562;BME280;43397;51.530;5.974;2022-07-01T10:28:27;101445.78;;;20.71;55.19
57562;BME280;43397;51.530;5.974;2022-07-01T10:30:58;101448.94;;;20.61;54.47
57562;BME280;43397;51.530;5.974;2022-07-01T10:33:28;101446.00;;;20.20;54.02
57562;BME280;43397;51.530;5.974;2022-07-01T10:35:54;101443.75;;;20.54;56.53
57562;BME280;43397;51.530;5.974;2022-07-01T10:38:20;101449.69;;;20.86;55.96
57562;BME280;43397;51.530;5.974;2022-07-01T10:40:47;101451.56;;;21.27;55.44
57562;BME280;43397;51.530;5.974;2022-07-01T10:43:15;101456.41;;;21.19;52.63
57562;BME280;43397;51.530;5.974;2022-07-01T10:45:42;101459.25;;;20.49;53.98
57562;BME280;43397;51.530;5.974;2022-07-01T10:48:18;101458.91;;;20.81;52.94
57562;BME280;43397;51.530;5.974;2022-07-01T10:50:45;101462.09;;;19.99;52.50
57562;BME280;43397;51.530;5.974;2022-07-01T10:53:12;101457.78;;;20.19;52.50
57562;BME280;43397;51.530;5.974;2022-07-01T10:55:39;101450.94;;;20.32;54.93
57562;BME280;43397;51.530;5.974;2022-07-01T10:58:06;101447.75;;;20.44;53.68
57562;BME280;43397;51.530;5.974;2022-07-01T11:00:37;101452.28;;;20.20;54.53
57562;BME280;43397;51.530;5.974;2022-07-01T11:03:11;101463.25;;;20.63;51.79
57562;BME280;43397;51.530;5.974;2022-07-01T11:05:38;101456.88;;;20.18;53.27
57562;BME280;43397;51.530;5.974;2022-07-01T11:08:05;101447.00;;;20.41;56.53
57562;BME280;43397;51.530;5.974;2022-07-01T11:10:32;101447.69;;;20.46;54.80
57562;BME280;43397;51.530;5.974;2022-07-01T11:12:59;101452.81;;;20.75;52.62
57562;BME280;43397;51.530;5.974;2022-07-01T11:15:28;101445.72;;;21.15;52.22
57562;BME280;43397;51.530;5.974;2022-07-01T11:17:54;101446.97;;;21.29;54.09
57562;BME280;43397;51.530;5.974;2022-07-01T11:20:21;101451.63;;;21.66;50.38
57562;BME280;43397;51.530;5.974;2022-07-01T11:22:47;101478.63;;;21.68;48.17
57562;BME280;43397;51.530;5.974;2022-07-01T11:25:13;101450.66;;;21.48;48.18
57562;BME280;43397;51.530;5.974;2022-07-01T11:27:39;101446.34;;;21.84;51.31
57562;BME280;43397;51.530;5.974;2022-07-01T11:30:07;101441.38;;;22.33;51.68
57562;BME280;43397;51.530;5.974;2022-07-01T11:32:36;101455.63;;;21.78;50.19
57562;BME280;43397;51.530;5.974;2022-07-01T11:35:04;101437.78;;;22.32;49.94
57562;BME280;43397;51.530;5.974;2022-07-01T11:37:31;101432.19;;;21.97;54.55
57562;BME280;43397;51.530;5.974;2022-07-01T11:40:07;101439.06;;;22.62;48.75
57562;BME280;43397;51.530;5.974;2022-07-01T11:42:33;101426.56;;;22.21;52.16
57562;BME280;43397;51.530;5.974;2022-07-01T11:44:59;101427.28;;;21.66;50.67
57562;BME280;43397;51.530;5.974;2022-07-01T11:47:26;101428.66;;;21.15;51.05
57562;BME280;43397;51.530;5.974;2022-07-01T11:49:53;101427.66;;;21.59;53.06
57562;BME280;43397;51.530;5.974;2022-07-01T11:52:21;101438.91;;;22.28;50.96
57562;BME280;43397;51.530;5.974;2022-07-01T11:54:48;101425.88;;;22.36;51.86
57562;BME280;43397;51.530;5.974;2022-07-01T11:57:19;101422.91;;;22.77;49.91
57562;BME280;43397;51.530;5.974;2022-07-01T11:59:48;101420.69;;;22.49;45.45
57562;BME280;43397;51.530;5.974;2022-07-01T12:02:14;101423.16;;;23.09;46.46
57562;BME280;43397;51.530;5.974;2022-07-01T12:04:41;101427.59;;;23.45;47.84
57562;BME280;43397;51.530;5.974;2022-07-01T12:07:09;101422.25;;;22.91;47.96
57562;BME280;43397;51.530;5.974;2022-07-01T12:09:35;101435.72;;;23.45;46.26
57562;BME280;43397;51.530;5.974;2022-07-01T12:12:02;101439.38;;;22.92;44.27
57562;BME280;43397;51.530;5.974;2022-07-01T12:14:30;101435.47;;;21.85;46.13
57562;BME280;43397;51.530;5.974;2022-07-01T12:16:57;101432.38;;;21.53;48.40
57562;BME280;43397;51.530;5.974;2022-07-01T12:19:26;101434.59;;;21.64;47.05
57562;BME280;43397;51.530;5.974;2022-07-01T12:21:54;101426.63;;;22.19;49.40
57562;BME280;43397;51.530;5.974;2022-07-01T12:24:22;101429.97;;;22.26;50.58
57562;BME280;43397;51.530;5.974;2022-07-01T12:26:50;101436.09;;;21.71;47.83
57562;BME280;43397;51.530;5.974;2022-07-01T12:29:17;101432.41;;;21.31;48.79
57562;BME280;43397;51.530;5.974;2022-07-01T12:31:43;101439.81;;;21.28;48.35
57562;BME280;43397;51.530;5.974;2022-07-01T12:34:10;101434.00;;;21.16;49.81
57562;BME280;43397;51.530;5.974;2022-07-01T12:36:36;101432.06;;;20.98;50.93
57562;BME280;43397;51.530;5.974;2022-07-01T12:39:05;101439.97;;;21.45;51.87
57562;BME280;43397;51.530;5.974;2022-07-01T12:41:34;101434.19;;;22.13;50.59
57562;BME280;43397;51.530;5.974;2022-07-01T12:44:00;101437.00;;;21.91;51.12